createdAt,value
2022-07-28T00:00:12.367Z,54.18
2022-07-28T00:01:12.268Z,56.54
2022-07-28T00:02:12.309Z,53.75
2022-07-28T00:03:12.288Z,53.89
2022-07-28T00:04:12.498Z,52.82
2022-07-28T00:05:12.292Z,54.61
2022-07-28T00:06:12.238Z,55.07
2022-07-28T00:07:12.220Z,55.94
2022-07-28T00:08:12.223Z,54.04
2022-07-28T00:09:12.206Z,54.58
2022-07-28T00:10:12.223Z,51.22
2022-07-28T00:11:12.167Z,54.91
2022-07-28T00:12:12.151Z,55.66
2022-07-28T00:13:12.187Z,52.54
2022-07-28T00:14:12.555Z,53.38
2022-07-28T00:15:12.127Z,53.37
2022-07-28T00:16:12.236Z,53.96
2022-07-28T00:17:12.101Z,53.51
2022-07-28T00:18:12.090Z,53.73
2022-07-28T00:19:12.139Z,50.78
2022-07-28T00:20:12.071Z,51.92
2022-07-28T00:21:12.078Z,52.76
2022-07-28T00:22:12.152Z,56.74
2022-07-28T00:23:12.026Z,55.62
2022-07-28T00:24:12.337Z,53.67
2022-07-28T00:25:12.011Z,54.40
2022-07-28T00:26:12.065Z,52.43
2022-07-28T00:27:11.971Z,51.33
2022-07-28T00:28:11.994Z,53.22
2022-07-28T00:29:11.991Z,53.90
2022-07-28T00:30:11.991Z,54.14
2022-07-28T00:31:13.850Z,54.54
2022-07-28T00:32:11.972Z,51.29
2022-07-28T00:33:11.962Z,52.73
2022-07-28T00:34:12.468Z,52.91
2022-07-28T00:35:11.973Z,55.43
2022-07-28T00:36:12.057Z,52.47
2022-07-28T00:37:13.415Z,51.38
2022-07-28T00:38:11.857Z,52.78
2022-07-28T00:39:11.862Z,50.43
2022-07-28T00:40:11.882Z,53.00
2022-07-28T00:41:11.817Z,54.02
2022-07-28T00:42:11.854Z,52.42
2022-07-28T00:43:11.784Z,54.80
2022-07-28T00:44:12.086Z,55.50
2022-07-28T00:45:11.762Z,53.02
2022-07-28T00:46:11.861Z,53.12
2022-07-28T00:47:11.773Z,55.21
2022-07-28T00:48:11.757Z,51.10
2022-07-28T00:49:11.784Z,52.34
2022-07-28T00:50:11.732Z,52.83
2022-07-28T00:51:11.723Z,53.44
2022-07-28T00:52:11.719Z,52.35
2022-07-28T00:53:11.685Z,51.09
2022-07-28T00:54:11.977Z,53.71
2022-07-28T00:55:11.675Z,53.94
2022-07-28T00:56:11.689Z,51.55
2022-07-28T00:57:11.663Z,54.07
2022-07-28T00:58:11.600Z,55.18
2022-07-28T00:59:11.626Z,52.17
2022-07-28T01:00:11.610Z,51.95
2022-07-28T01:01:11.609Z,53.13
2022-07-28T01:02:11.750Z,51.81
2022-07-28T01:03:11.684Z,54.23
2022-07-28T01:04:12.038Z,51.41
2022-07-28T01:05:11.536Z,54.18
2022-07-28T01:06:11.585Z,53.95
2022-07-28T01:07:11.589Z,53.19
2022-07-28T01:08:11.504Z,55.37
2022-07-28T01:09:11.504Z,53.04
2022-07-28T01:10:11.492Z,53.94
2022-07-28T01:11:11.488Z,54.23
2022-07-28T01:12:11.464Z,52.17
2022-07-28T01:13:11.490Z,54.93
2022-07-28T01:14:11.813Z,53.96
2022-07-28T01:15:11.418Z,55.50
2022-07-28T01:16:11.420Z,54.76
2022-07-28T01:17:11.849Z,53.88
2022-07-28T01:18:11.431Z,56.10
2022-07-28T01:19:11.424Z,53.26
2022-07-28T01:20:11.361Z,51.95
2022-07-28T01:21:11.358Z,51.58
2022-07-28T01:22:11.337Z,53.92
2022-07-28T01:23:11.362Z,53.59
2022-07-28T01:24:11.615Z,53.58
2022-07-28T01:25:11.299Z,53.96
2022-07-28T01:26:11.678Z,50.11
2022-07-28T01:27:11.274Z,53.48
2022-07-28T01:28:11.348Z,51.35
2022-07-28T01:29:11.327Z,54.73
2022-07-28T01:30:11.238Z,53.82
2022-07-28T01:31:11.312Z,53.60
2022-07-28T01:32:11.227Z,53.43
2022-07-28T01:33:11.206Z,52.72
2022-07-28T01:34:11.441Z,53.49
2022-07-28T01:35:11.228Z,53.29
2022-07-28T01:36:11.180Z,52.89
2022-07-28T01:37:11.184Z,51.12
2022-07-28T01:38:11.175Z,52.21
2022-07-28T01:39:11.170Z,53.34
2022-07-28T01:40:11.147Z,54.38
2022-07-28T01:41:11.152Z,53.50
2022-07-28T01:42:11.088Z,51.78
2022-07-28T01:43:13.306Z,51.73
2022-07-28T01:44:11.349Z,55.85
2022-07-28T01:45:11.053Z,54.18
2022-07-28T01:46:11.108Z,53.99
2022-07-28T01:47:11.095Z,54.00
2022-07-28T01:48:11.035Z,53.75
2022-07-28T01:49:11.153Z,54.77
2022-07-28T01:50:11.029Z,52.53
2022-07-28T01:51:11.020Z,53.43
2022-07-28T01:52:10.984Z,52.85
2022-07-28T01:53:10.994Z,52.84
2022-07-28T01:54:11.257Z,53.11
2022-07-28T01:55:10.989Z,54.22
2022-07-28T01:56:10.946Z,53.37
2022-07-28T01:57:10.940Z,51.69
2022-07-28T01:58:10.924Z,53.45
2022-07-28T01:59:10.897Z,54.22
2022-07-28T02:00:10.915Z,52.95
2022-07-28T02:01:10.974Z,51.76
2022-07-28T02:02:10.871Z,52.48
2022-07-28T02:03:10.839Z,53.23
2022-07-28T02:04:11.190Z,52.40
2022-07-28T02:05:10.914Z,52.60
2022-07-28T02:06:10.831Z,53.94
2022-07-28T02:07:10.813Z,50.72
2022-07-28T02:08:10.791Z,53.83
2022-07-28T02:09:10.825Z,53.08
2022-07-28T02:10:10.812Z,54.17
2022-07-28T02:11:10.758Z,54.32
2022-07-28T02:12:11.550Z,53.28
2022-07-28T02:13:10.759Z,52.45
2022-07-28T02:14:10.949Z,53.05
2022-07-28T02:15:10.774Z,53.62
2022-07-28T02:16:10.757Z,52.51
2022-07-28T02:17:10.704Z,54.45
2022-07-28T02:18:10.868Z,52.63
2022-07-28T02:19:10.666Z,53.43
2022-07-28T02:20:10.644Z,54.21
2022-07-28T02:21:11.980Z,53.12
2022-07-28T02:22:10.619Z,53.03
2022-07-28T02:23:10.636Z,52.17
2022-07-28T02:24:10.871Z,52.91
2022-07-28T02:25:10.633Z,53.71
2022-07-28T02:26:10.621Z,53.12
2022-07-28T02:27:10.572Z,53.57
2022-07-28T02:28:10.561Z,54.83
2022-07-28T02:29:27.447Z,53.13
2022-07-28T02:30:12.578Z,54.18
2022-07-28T02:31:10.615Z,53.28
2022-07-28T02:32:26.860Z,53.38
2022-07-28T02:33:10.529Z,52.55
2022-07-28T02:34:10.567Z,53.47
2022-07-28T02:35:10.488Z,52.67
2022-07-28T02:36:10.494Z,53.73
2022-07-28T02:37:10.454Z,54.89
2022-07-28T02:38:10.484Z,53.37
2022-07-28T02:39:10.464Z,54.16
2022-07-28T02:40:10.454Z,52.31
2022-07-28T02:41:10.443Z,56.00
2022-07-28T02:42:10.395Z,53.79
2022-07-28T02:43:10.387Z,52.67
2022-07-28T02:44:10.516Z,54.72
2022-07-28T02:45:10.407Z,52.23
2022-07-28T02:46:10.448Z,52.97
2022-07-28T02:47:10.365Z,55.26
2022-07-28T02:48:10.346Z,53.28
2022-07-28T02:49:10.431Z,53.83
2022-07-28T02:50:10.326Z,56.28
2022-07-28T02:51:10.344Z,55.49
2022-07-28T02:52:10.274Z,52.36
2022-07-28T02:53:14.992Z,54.78
2022-07-28T02:54:10.359Z,54.47
2022-07-28T02:55:10.340Z,53.60
2022-07-28T02:56:10.237Z,55.88
2022-07-28T02:57:10.240Z,55.24
2022-07-28T02:58:10.215Z,55.40
2022-07-28T02:59:10.205Z,52.45
2022-07-28T03:00:10.213Z,54.06
2022-07-28T03:01:10.253Z,54.95
2022-07-28T03:02:10.209Z,53.96
2022-07-28T03:03:10.173Z,55.14
2022-07-28T03:04:10.214Z,52.83
2022-07-28T03:05:11.532Z,54.42
2022-07-28T03:06:10.108Z,52.93
2022-07-28T03:07:10.941Z,54.42
2022-07-28T03:08:10.122Z,55.31
2022-07-28T03:09:10.056Z,53.45
2022-07-28T03:10:10.067Z,56.06
2022-07-28T03:11:10.090Z,52.31
2022-07-28T03:12:10.087Z,53.90
2022-07-28T03:13:10.121Z,54.16
2022-07-28T03:14:10.175Z,54.60
2022-07-28T03:15:10.093Z,56.20
2022-07-28T03:16:10.001Z,54.71
2022-07-28T03:17:10.107Z,55.26
2022-07-28T03:18:09.982Z,53.36
2022-07-28T03:19:09.966Z,55.08
2022-07-28T03:20:09.978Z,55.33
2022-07-28T03:21:10.019Z,53.78
2022-07-28T03:22:10.374Z,55.03
2022-07-28T03:23:09.917Z,56.08
2022-07-28T03:24:10.058Z,55.95
2022-07-28T03:25:09.900Z,53.90
2022-07-28T03:26:09.886Z,53.86
2022-07-28T03:27:09.878Z,55.01
2022-07-28T03:28:09.897Z,55.06
2022-07-28T03:29:09.833Z,55.12
2022-07-28T03:30:09.869Z,56.31
2022-07-28T03:31:09.862Z,54.22
2022-07-28T03:32:09.826Z,55.64
2022-07-28T03:33:09.840Z,54.09
2022-07-28T03:34:09.789Z,54.75
2022-07-28T03:35:09.785Z,55.23
2022-07-28T03:36:10.757Z,54.55
2022-07-28T03:37:09.739Z,56.08
2022-07-28T03:38:09.770Z,55.03
2022-07-28T03:39:09.739Z,56.51
2022-07-28T03:40:09.722Z,55.93
2022-07-28T03:41:09.727Z,55.91
2022-07-28T03:42:09.690Z,57.47
2022-07-28T03:43:09.745Z,55.40
2022-07-28T03:44:09.669Z,54.79
2022-07-28T03:45:09.661Z,55.47
2022-07-28T03:46:13.135Z,54.79
2022-07-28T03:47:09.629Z,56.35
2022-07-28T03:48:09.711Z,55.87
2022-07-28T03:49:09.683Z,54.86
2022-07-28T03:50:09.588Z,55.57
2022-07-28T03:51:09.591Z,55.15
2022-07-28T03:52:09.605Z,55.48
2022-07-28T03:53:09.560Z,54.96
2022-07-28T03:54:09.615Z,55.27
2022-07-28T03:55:09.541Z,56.07
2022-07-28T03:56:09.545Z,55.80
2022-07-28T03:57:09.547Z,56.08
2022-07-28T03:58:09.519Z,55.85
2022-07-28T03:59:09.530Z,54.75
2022-07-28T04:00:09.948Z,55.72
2022-07-28T04:01:09.503Z,55.92
2022-07-28T04:02:09.885Z,56.02
2022-07-28T04:03:35.788Z,56.83
2022-07-28T04:04:10.550Z,56.62
2022-07-28T04:05:09.449Z,54.88
2022-07-28T04:06:09.433Z,55.93
2022-07-28T04:07:09.451Z,55.93
2022-07-28T04:08:09.924Z,54.00
2022-07-28T04:09:09.422Z,55.38
2022-07-28T04:10:09.391Z,56.71
2022-07-28T04:11:09.640Z,56.77
2022-07-28T04:12:10.150Z,56.74
2022-07-28T04:13:09.354Z,55.19
2022-07-28T04:14:13.217Z,55.70
2022-07-28T04:15:10.335Z,56.28
2022-07-28T04:16:09.315Z,55.98
2022-07-28T04:17:09.322Z,56.96
2022-07-28T04:18:09.281Z,56.19
2022-07-28T04:19:09.301Z,56.21
2022-07-28T04:20:09.483Z,55.61
2022-07-28T04:21:09.250Z,56.44
2022-07-28T04:22:09.259Z,55.42
2022-07-28T04:23:09.223Z,56.75
2022-07-28T04:24:09.261Z,55.91
2022-07-28T04:25:09.209Z,55.89
2022-07-28T04:26:09.862Z,55.90
2022-07-28T04:27:09.184Z,54.93
2022-07-28T04:28:09.928Z,53.36
2022-07-28T04:29:09.200Z,55.25
2022-07-28T04:30:12.046Z,54.10
2022-07-28T04:31:09.190Z,55.47
2022-07-28T04:32:09.130Z,55.23
2022-07-28T04:33:09.106Z,55.78
2022-07-28T04:34:09.124Z,56.46
2022-07-28T04:35:09.103Z,56.36
2022-07-28T04:36:09.091Z,57.54
2022-07-28T04:37:09.069Z,56.37
2022-07-28T04:38:09.049Z,56.32
2022-07-28T04:39:09.073Z,56.78
2022-07-28T04:40:09.026Z,56.94
2022-07-28T04:41:09.011Z,55.71
2022-07-28T04:42:09.021Z,55.29
2022-07-28T04:43:08.980Z,55.76
2022-07-28T04:44:09.030Z,57.13
2022-07-28T04:45:08.991Z,57.22
2022-07-28T04:46:11.988Z,56.09
2022-07-28T04:47:08.956Z,57.51
2022-07-28T04:48:08.920Z,54.52
2022-07-28T04:49:08.979Z,55.48
2022-07-28T04:50:08.921Z,55.88
2022-07-28T04:51:08.899Z,56.12
2022-07-28T04:52:08.909Z,56.02
2022-07-28T04:53:08.873Z,56.26
2022-07-28T04:54:08.859Z,58.47
2022-07-28T04:55:09.891Z,55.61
2022-07-28T04:56:08.849Z,55.34
2022-07-28T04:57:12.014Z,55.55
2022-07-28T04:58:09.420Z,56.67
2022-07-28T04:59:08.806Z,56.47
2022-07-28T05:00:08.822Z,55.80
2022-07-28T05:01:08.827Z,56.39
2022-07-28T05:02:08.770Z,55.95
2022-07-28T05:03:08.750Z,55.16
2022-07-28T05:04:08.790Z,55.43
2022-07-28T05:05:08.852Z,57.45
2022-07-28T05:06:09.339Z,55.75
2022-07-28T05:07:12.812Z,56.31
2022-07-28T05:08:08.695Z,57.09
2022-07-28T05:09:08.700Z,55.90
2022-07-28T05:10:08.710Z,56.43
2022-07-28T05:11:08.705Z,56.40
2022-07-28T05:12:08.668Z,56.81
2022-07-28T05:13:08.635Z,55.87
2022-07-28T05:14:08.647Z,55.44
2022-07-28T05:15:09.212Z,56.96
2022-07-28T05:16:08.651Z,56.36
2022-07-28T05:17:09.144Z,56.28
2022-07-28T05:18:08.605Z,54.78
2022-07-28T05:19:08.596Z,55.19
2022-07-28T05:20:08.631Z,54.76
2022-07-28T05:21:08.563Z,56.34
2022-07-28T05:22:08.550Z,56.99
2022-07-28T05:23:08.572Z,57.22
2022-07-28T05:24:08.529Z,57.55
2022-07-28T05:25:08.557Z,56.02
2022-07-28T05:26:08.517Z,56.00
2022-07-28T05:27:08.483Z,55.38
2022-07-28T05:28:08.468Z,56.27
2022-07-28T05:29:08.476Z,56.36
2022-07-28T05:30:08.461Z,56.82
2022-07-28T05:31:08.449Z,55.44
2022-07-28T05:32:16.986Z,57.21
2022-07-28T05:33:08.420Z,56.13
2022-07-28T05:34:08.420Z,55.11
2022-07-28T05:35:08.399Z,56.07
2022-07-28T05:36:08.447Z,56.20
2022-07-28T05:37:08.367Z,55.44
2022-07-28T05:38:10.989Z,55.60
2022-07-28T05:39:08.348Z,53.19
2022-07-28T05:40:08.323Z,56.56
2022-07-28T05:41:08.345Z,55.77
2022-07-28T05:42:08.302Z,58.21
2022-07-28T05:43:08.303Z,56.46
2022-07-28T05:44:08.289Z,55.62
2022-07-28T05:45:16.467Z,58.29
2022-07-28T05:46:08.344Z,56.71
2022-07-28T05:47:08.254Z,55.90
2022-07-28T05:48:08.257Z,55.39
2022-07-28T05:49:08.285Z,56.10
2022-07-28T05:50:08.310Z,55.87
2022-07-28T05:51:08.217Z,55.81
2022-07-28T05:52:08.187Z,55.85
2022-07-28T05:53:08.189Z,55.33
2022-07-28T05:54:08.186Z,55.35
2022-07-28T05:55:08.172Z,55.28
2022-07-28T05:56:08.196Z,57.15
2022-07-28T05:57:08.131Z,56.57
2022-07-28T05:58:08.134Z,57.68
2022-07-28T05:59:08.142Z,56.09
2022-07-28T06:00:08.142Z,55.57
2022-07-28T06:01:08.190Z,56.37
2022-07-28T06:02:08.122Z,55.91
2022-07-28T06:03:08.093Z,55.10
2022-07-28T06:04:26.662Z,54.56
2022-07-28T06:05:10.068Z,55.56
2022-07-28T06:06:15.653Z,55.94
2022-07-28T06:07:08.065Z,56.34
2022-07-28T06:08:08.023Z,54.69
2022-07-28T06:09:07.998Z,55.15
2022-07-28T06:10:08.007Z,55.01
2022-07-28T06:11:07.992Z,54.72
2022-07-28T06:12:08.009Z,56.73
2022-07-28T06:13:07.948Z,57.43
2022-07-28T06:14:07.961Z,57.39
2022-07-28T06:15:07.938Z,55.71
2022-07-28T06:16:43.318Z,57.41
2022-07-28T06:17:08.299Z,57.62
2022-07-28T06:18:08.119Z,56.59
2022-07-28T06:19:07.987Z,56.25
2022-07-28T06:20:07.907Z,56.76
2022-07-28T06:21:07.923Z,57.86
2022-07-28T06:22:07.890Z,57.14
2022-07-28T06:23:07.906Z,55.93
2022-07-28T06:24:07.880Z,55.36
2022-07-28T06:25:07.840Z,57.20
2022-07-28T06:26:07.877Z,56.09
2022-07-28T06:27:07.858Z,55.37
2022-07-28T06:28:07.822Z,56.56
2022-07-28T06:29:07.826Z,58.42
2022-07-28T06:30:07.825Z,57.02
2022-07-28T06:31:07.846Z,57.04
2022-07-28T06:32:07.807Z,54.98
2022-07-28T06:33:07.789Z,57.71
2022-07-28T06:34:07.739Z,57.03
2022-07-28T06:35:07.736Z,54.72
2022-07-28T06:36:07.717Z,57.66
2022-07-28T06:37:07.800Z,57.08
2022-07-28T06:38:07.709Z,55.95
2022-07-28T06:39:07.719Z,58.03
2022-07-28T06:40:07.736Z,56.94
2022-07-28T06:41:07.685Z,55.99
2022-07-28T06:42:07.704Z,57.65
2022-07-28T06:43:07.675Z,58.00
2022-07-28T06:44:08.446Z,57.12
2022-07-28T06:45:07.663Z,56.07
2022-07-28T06:46:07.623Z,56.18
2022-07-28T06:47:07.645Z,56.13
2022-07-28T06:48:07.614Z,57.02
2022-07-28T06:49:07.685Z,56.90
2022-07-28T06:50:07.576Z,58.68
2022-07-28T06:51:07.563Z,56.79
2022-07-28T06:52:07.579Z,56.67
2022-07-28T06:53:07.618Z,56.94
2022-07-28T06:54:11.176Z,57.04
2022-07-28T06:55:07.522Z,59.02
2022-07-28T06:56:07.595Z,55.91
2022-07-28T06:57:07.538Z,58.21
2022-07-28T06:58:07.506Z,56.57
2022-07-28T06:59:07.472Z,57.80
2022-07-28T07:00:07.481Z,57.63
2022-07-28T07:09:11.651Z,57.12
2022-07-28T07:10:11.667Z,56.93
2022-07-28T07:11:11.801Z,57.99
2022-07-28T07:12:12.767Z,58.87
2022-07-28T07:13:13.789Z,55.30
2022-07-28T07:14:13.662Z,55.23
2022-07-28T07:15:13.003Z,56.54
2022-07-28T07:24:06.014Z,56.98
2022-07-28T07:25:05.560Z,56.81
2022-07-28T07:26:05.509Z,57.16
2022-07-28T07:27:05.441Z,57.51
2022-07-28T07:28:05.456Z,55.99
2022-07-28T07:29:05.393Z,56.27
2022-07-28T07:30:05.420Z,56.48
2022-07-28T07:31:05.730Z,57.29
2022-07-28T07:32:10.200Z,56.61
2022-07-28T07:33:07.878Z,54.84
2022-07-28T07:34:05.601Z,55.07
2022-07-28T07:35:05.343Z,61.43
2022-07-28T07:36:05.312Z,57.55
2022-07-28T07:37:05.356Z,55.01
2022-07-28T07:38:05.260Z,55.45
2022-07-28T07:39:05.308Z,54.85
2022-07-28T07:40:05.255Z,55.14
2022-07-28T07:41:05.263Z,56.02
2022-07-28T07:42:05.245Z,57.04
2022-07-28T07:43:05.227Z,57.18
2022-07-28T07:44:05.228Z,55.62
2022-07-28T07:45:05.211Z,53.70
2022-07-28T07:46:05.209Z,54.28
2022-07-28T07:47:05.267Z,54.67
2022-07-28T07:48:05.204Z,54.41
2022-07-28T07:49:05.253Z,55.45
2022-07-28T07:50:05.203Z,54.54
2022-07-28T07:51:05.200Z,54.30
2022-07-28T07:52:05.110Z,58.01
2022-07-28T07:53:05.155Z,56.80
2022-07-28T07:54:05.227Z,55.71
2022-07-28T07:55:05.162Z,55.25
2022-07-28T07:56:05.107Z,53.73
2022-07-28T07:57:05.056Z,56.18
2022-07-28T07:58:05.061Z,56.19
2022-07-28T07:59:05.093Z,55.14
2022-07-28T08:00:05.064Z,54.26
2022-07-28T08:01:05.005Z,56.25
2022-07-28T08:02:05.137Z,58.78
2022-07-28T08:03:11.084Z,57.17
2022-07-28T08:04:05.038Z,57.29
2022-07-28T08:05:05.016Z,55.34
2022-07-28T08:06:04.963Z,54.46
2022-07-28T08:07:04.939Z,54.66
2022-07-28T08:08:04.978Z,55.50
2022-07-28T08:09:04.937Z,56.61
2022-07-28T08:10:04.937Z,55.87
2022-07-28T08:11:04.943Z,55.02
2022-07-28T08:12:04.893Z,54.95
2022-07-28T08:13:04.869Z,55.08
2022-07-28T08:14:04.859Z,54.53
2022-07-28T08:15:04.865Z,54.13
2022-07-28T08:16:04.953Z,54.50
2022-07-28T08:17:04.892Z,54.15
2022-07-28T08:18:04.791Z,54.84
2022-07-28T08:19:04.779Z,54.84
2022-07-28T08:20:04.897Z,56.93
2022-07-28T08:21:04.820Z,57.39
2022-07-28T08:22:04.777Z,54.35
2022-07-28T08:23:05.337Z,55.73
2022-07-28T08:24:04.740Z,56.27
2022-07-28T08:25:04.765Z,54.74
2022-07-28T08:26:04.727Z,53.85
2022-07-28T08:27:04.689Z,54.08
2022-07-28T08:28:04.860Z,53.04
2022-07-28T08:29:04.646Z,55.15
2022-07-28T08:30:04.703Z,55.66
2022-07-28T08:31:04.725Z,54.39
2022-07-28T08:32:04.626Z,54.82
2022-07-28T08:33:04.684Z,56.33
2022-07-28T08:34:04.587Z,54.92
2022-07-28T08:35:31.689Z,53.89
2022-07-28T08:36:05.604Z,53.46
2022-07-28T08:37:04.568Z,54.26
2022-07-28T08:38:04.561Z,53.55
2022-07-28T08:39:04.562Z,54.32
2022-07-28T08:40:04.532Z,55.74
2022-07-28T08:41:04.561Z,54.12
2022-07-28T08:42:04.504Z,55.11
2022-07-28T08:43:04.480Z,55.15
2022-07-28T08:44:04.500Z,54.29
2022-07-28T08:45:04.471Z,53.51
2022-07-28T08:46:04.554Z,53.68
2022-07-28T08:47:04.478Z,54.81
2022-07-28T08:48:09.058Z,55.90
2022-07-28T08:49:05.470Z,58.07
2022-07-28T08:50:04.417Z,54.16
2022-07-28T08:51:04.427Z,57.22
2022-07-28T08:52:04.414Z,57.10
2022-07-28T08:53:04.406Z,56.22
2022-07-28T08:54:04.365Z,54.81
2022-07-28T08:55:04.355Z,56.49
2022-07-28T08:56:04.358Z,56.32
2022-07-28T08:57:04.320Z,56.02
2022-07-28T08:58:04.358Z,56.83
2022-07-28T08:59:04.291Z,56.79
2022-07-28T09:00:04.327Z,55.73
2022-07-28T09:01:04.292Z,55.35
2022-07-28T09:02:04.292Z,55.84
2022-07-28T09:03:04.356Z,56.91
2022-07-28T09:04:04.245Z,55.56
2022-07-28T09:05:54.860Z,57.72
2022-07-28T09:06:04.622Z,57.26
2022-07-28T09:07:04.202Z,58.43
2022-07-28T09:08:04.208Z,57.91
2022-07-28T09:09:04.187Z,58.56
2022-07-28T09:10:04.171Z,58.82
2022-07-28T09:11:04.182Z,58.75
2022-07-28T09:12:04.147Z,58.77
2022-07-28T09:13:04.150Z,54.23
2022-07-28T09:14:04.130Z,57.87
2022-07-28T09:15:04.456Z,57.62
2022-07-28T09:16:04.150Z,56.95
2022-07-28T09:17:05.444Z,54.39
2022-07-28T09:18:04.092Z,55.09
2022-07-28T09:19:04.140Z,54.95
2022-07-28T09:20:08.828Z,56.08
2022-07-28T09:21:05.050Z,57.05
2022-07-28T09:22:04.103Z,60.48
2022-07-28T09:23:04.055Z,53.42
2022-07-28T09:24:04.025Z,53.99
2022-07-28T09:25:04.003Z,54.55
2022-07-28T09:26:08.438Z,55.05
2022-07-28T09:27:03.969Z,55.99
2022-07-28T09:28:03.956Z,53.73
2022-07-28T09:29:03.951Z,55.72
2022-07-28T09:30:03.934Z,56.01
2022-07-28T09:31:03.920Z,55.90
2022-07-28T09:32:03.990Z,55.73
2022-07-28T09:33:03.894Z,56.28
2022-07-28T09:34:03.928Z,54.24
2022-07-28T09:35:03.852Z,54.41
2022-07-28T09:36:03.913Z,55.02
2022-07-28T09:37:03.943Z,53.01
2022-07-28T09:38:03.845Z,53.56
2022-07-28T09:39:03.890Z,54.26
2022-07-28T09:40:04.182Z,56.69
2022-07-28T09:41:03.835Z,55.83
2022-07-28T09:42:03.801Z,54.69
2022-07-28T09:43:03.776Z,57.95
2022-07-28T09:44:03.842Z,60.46
2022-07-28T09:45:21.971Z,57.77
2022-07-28T09:46:03.907Z,60.54
2022-07-28T09:47:03.836Z,59.92
2022-07-28T09:48:03.907Z,59.34
2022-07-28T09:49:03.935Z,58.21
2022-07-28T09:50:03.834Z,55.63
2022-07-28T09:51:03.673Z,56.38
2022-07-28T09:52:03.645Z,54.81
2022-07-28T09:53:03.692Z,56.90
2022-07-28T09:54:03.650Z,57.34
2022-07-28T09:59:00.078Z,56.21
2022-07-28T09:59:57.564Z,55.46
2022-07-28T10:00:56.239Z,55.40
2022-07-28T10:01:56.522Z,58.12
2022-07-28T10:02:56.204Z,60.13
2022-07-28T10:03:56.194Z,61.09
2022-07-28T10:04:56.202Z,62.85
2022-07-28T10:05:56.164Z,60.26
2022-07-28T10:06:56.141Z,59.03
2022-07-28T10:07:56.136Z,58.04
2022-07-28T10:08:56.117Z,58.56
2022-07-28T10:09:56.198Z,56.09
2022-07-28T10:10:56.090Z,56.29
2022-07-28T10:11:56.097Z,55.18
2022-07-28T10:12:56.067Z,55.35
2022-07-28T10:13:56.058Z,55.10
2022-07-28T10:14:56.101Z,55.60
2022-07-28T10:15:56.087Z,55.91
2022-07-28T10:16:56.017Z,57.86
2022-07-28T10:17:56.012Z,58.43
2022-07-28T10:18:55.989Z,55.73
2022-07-28T10:19:56.006Z,58.06
2022-07-28T10:20:55.992Z,57.93
2022-07-28T10:21:55.961Z,57.47
2022-07-28T10:22:55.943Z,56.93
2022-07-28T10:23:55.935Z,54.37
2022-07-28T10:24:55.915Z,53.35
2022-07-28T10:25:55.960Z,54.50
2022-07-28T10:26:55.893Z,59.11
2022-07-28T10:27:55.888Z,60.14
2022-07-28T10:28:55.887Z,59.57
2022-07-28T10:29:55.863Z,58.35
2022-07-28T10:30:55.922Z,58.36
2022-07-28T10:31:55.877Z,58.51
2022-07-28T10:32:55.817Z,55.42
2022-07-28T10:33:55.854Z,55.54
2022-07-28T10:34:55.790Z,57.67
2022-07-28T10:35:55.929Z,57.08
2022-07-28T10:36:55.776Z,58.14
2022-07-28T10:37:55.787Z,57.81
2022-07-28T10:38:55.791Z,57.94
2022-07-28T10:39:55.741Z,58.44
2022-07-28T10:40:55.766Z,57.90
2022-07-28T10:41:55.716Z,53.74
2022-07-28T10:42:55.696Z,54.75
2022-07-28T10:43:55.695Z,53.37
2022-07-28T10:44:55.691Z,51.40
2022-07-28T10:46:05.435Z,53.91
2022-07-28T10:46:56.853Z,56.18
2022-07-28T10:47:56.771Z,57.72
2022-07-28T10:48:56.829Z,59.17
2022-07-28T10:49:56.744Z,59.54
2022-07-28T10:50:56.801Z,60.19
2022-07-28T10:52:08.858Z,60.22
2022-07-28T10:52:59.396Z,59.73
2022-07-28T10:53:56.733Z,58.31
2022-07-28T10:54:56.714Z,62.18
2022-07-28T10:55:56.685Z,62.46
2022-07-28T10:56:57.203Z,59.17
2022-07-28T10:58:02.342Z,60.07
2022-07-28T10:58:59.154Z,59.12
2022-07-28T10:59:58.553Z,58.59
2022-07-28T11:01:02.159Z,59.56
2022-07-28T11:01:58.784Z,60.53
2022-07-28T11:02:56.736Z,58.66
2022-07-28T11:03:56.706Z,59.83
2022-07-28T11:04:56.603Z,59.62
2022-07-28T11:05:56.573Z,59.10
2022-07-28T11:06:56.597Z,59.66
2022-07-28T11:07:56.540Z,60.05
2022-07-28T11:08:56.548Z,59.57
2022-07-28T11:09:56.534Z,57.93
2022-07-28T11:11:05.576Z,59.73
2022-07-28T11:11:56.542Z,57.98
2022-07-28T11:12:56.513Z,58.28
2022-07-28T11:13:56.501Z,58.52
2022-07-28T11:14:56.492Z,59.52
2022-07-28T11:15:56.459Z,59.90
2022-07-28T11:16:56.529Z,61.71
2022-07-28T11:17:56.460Z,60.45
2022-07-28T11:18:56.449Z,62.28
2022-07-28T11:20:25.249Z,60.97
2022-07-28T11:21:00.521Z,60.74
2022-07-28T11:21:56.437Z,58.51
2022-07-28T11:22:56.389Z,59.05
2022-07-28T11:23:56.386Z,59.20
2022-07-28T11:24:56.373Z,60.85
2022-07-28T11:25:56.356Z,62.03
2022-07-28T11:26:58.914Z,61.41
2022-07-28T11:27:56.327Z,62.39
2022-07-28T11:28:56.336Z,63.05
2022-07-28T11:29:56.325Z,60.80
2022-07-28T11:30:56.377Z,60.95
2022-07-28T11:31:56.339Z,61.27
2022-07-28T11:32:56.276Z,61.80
2022-07-28T11:33:56.261Z,59.63
2022-07-28T11:34:56.307Z,59.62
2022-07-28T11:35:56.233Z,59.56
2022-07-28T11:36:56.291Z,60.09
2022-07-28T11:37:56.259Z,55.59
2022-07-28T11:38:56.197Z,60.17
2022-07-28T11:39:56.242Z,59.74
2022-07-28T11:40:56.570Z,61.62
2022-07-28T11:41:56.159Z,60.19
2022-07-28T11:42:56.197Z,56.62
2022-07-28T11:43:56.152Z,59.74
2022-07-28T11:44:56.140Z,59.73
2022-07-28T11:45:56.583Z,58.85
2022-07-28T11:46:56.160Z,60.91
2022-07-28T11:47:56.127Z,63.15
2022-07-28T11:48:56.145Z,59.78
2022-07-28T11:49:56.395Z,60.13
2022-07-28T11:50:56.082Z,60.03
2022-07-28T11:51:56.058Z,61.05
2022-07-28T11:52:56.060Z,60.07
2022-07-28T11:53:56.061Z,56.48
2022-07-28T11:54:56.028Z,57.16
2022-07-28T11:56:02.692Z,57.54
2022-07-28T11:56:55.999Z,56.97
2022-07-28T11:57:56.033Z,56.45
2022-07-28T11:58:55.998Z,56.23
2022-07-28T11:59:55.986Z,55.64
2022-07-28T12:00:55.988Z,54.60
2022-07-28T12:01:56.036Z,54.37
2022-07-28T12:02:55.997Z,53.99
2022-07-28T12:03:56.777Z,55.03
2022-07-28T12:04:56.013Z,56.05
2022-07-28T12:05:55.913Z,56.97
2022-07-28T12:06:55.916Z,58.72
2022-07-28T12:07:55.924Z,59.55
2022-07-28T12:08:55.937Z,58.73
2022-07-28T12:09:55.868Z,60.30
2022-07-28T12:10:56.376Z,59.19
2022-07-28T12:11:55.911Z,62.46
2022-07-28T12:12:55.880Z,63.08
2022-07-28T12:13:55.836Z,61.57
2022-07-28T12:14:55.837Z,58.87
2022-07-28T12:15:55.794Z,59.49
2022-07-28T12:16:55.822Z,54.85
2022-07-28T12:17:55.851Z,53.26
2022-07-28T12:18:55.789Z,55.82
2022-07-28T12:19:55.762Z,57.38
2022-07-28T12:20:56.068Z,55.68
2022-07-28T12:21:55.737Z,55.72
2022-07-28T12:22:55.812Z,59.62
2022-07-28T12:23:55.722Z,58.80
2022-07-28T12:24:55.723Z,58.48
2022-07-28T12:25:55.701Z,55.51
2022-07-28T12:26:56.677Z,56.20
2022-07-28T12:27:55.809Z,55.15
2022-07-28T12:28:55.715Z,55.58
2022-07-28T12:29:56.524Z,52.92
2022-07-28T12:30:56.231Z,53.34
2022-07-28T12:31:55.895Z,54.91
2022-07-28T12:32:55.616Z,54.98
2022-07-28T12:33:55.634Z,57.64
2022-07-28T12:34:55.627Z,58.25
2022-07-28T12:35:56.253Z,56.88
2022-07-28T12:36:55.604Z,54.79
2022-07-28T12:37:55.558Z,53.40
2022-07-28T12:38:55.583Z,51.76
2022-07-28T12:39:55.559Z,53.50
2022-07-28T12:40:55.560Z,55.39
2022-07-28T12:41:55.550Z,54.11
2022-07-28T12:42:55.559Z,51.80
2022-07-28T12:43:55.557Z,52.73
2022-07-28T12:44:56.102Z,55.14
2022-07-28T12:45:55.543Z,54.85
2022-07-28T12:46:55.483Z,53.88
2022-07-28T12:47:55.484Z,55.73
2022-07-28T12:48:55.511Z,51.93
2022-07-28T12:49:59.069Z,52.52
2022-07-28T12:50:55.453Z,53.13
2022-07-28T12:51:55.434Z,51.38
2022-07-28T12:52:55.410Z,53.35
2022-07-28T12:53:55.438Z,53.69
2022-07-28T12:54:56.693Z,54.99
2022-07-28T12:55:55.398Z,53.73
2022-07-28T12:56:55.394Z,52.60
2022-07-28T12:57:55.381Z,54.10
2022-07-28T12:58:55.402Z,53.81
2022-07-28T12:59:55.344Z,55.24
2022-07-28T13:00:55.366Z,57.11
2022-07-28T13:01:55.338Z,56.45
2022-07-28T13:02:56.302Z,57.73
2022-07-28T13:03:55.306Z,56.87
2022-07-28T13:04:55.321Z,56.60
2022-07-28T13:05:55.356Z,56.52
2022-07-28T13:06:55.278Z,54.85
2022-07-28T13:07:55.274Z,54.42
2022-07-28T13:08:55.259Z,53.03
2022-07-28T13:10:00.707Z,54.31
2022-07-28T13:10:57.396Z,52.90
2022-07-28T13:11:55.233Z,53.40